createdAt,value
2018-12-20T00:00:38.577Z,-3.61
2018-12-20T00:03:06.274Z,-3.63
2018-12-20T00:05:34.091Z,-3.79
2018-12-20T00:08:02.909Z,-3.75
2018-12-20T00:10:30.665Z,-3.77
2018-12-20T00:12:58.353Z,-3.69
2018-12-20T00:15:27.354Z,-3.66
2018-12-20T00:17:55.875Z,-3.59
2018-12-20T00:20:24.529Z,-3.52
2018-12-20T00:22:52.193Z,-3.42
2018-12-20T00:25:19.943Z,-3.44
2018-12-20T00:27:47.742Z,-3.38
2018-12-20T00:30:15.455Z,-3.47
2018-12-20T00:32:43.205Z,-3.65
2018-12-20T00:35:10.926Z,-3.58
2018-12-20T00:37:38.702Z,-3.49
2018-12-20T00:40:06.973Z,-3.45
2018-12-20T00:42:34.854Z,-3.30
2018-12-20T00:45:02.639Z,-3.36
2018-12-20T00:47:31.043Z,-3.39
2018-12-20T00:49:58.780Z,-3.46
2018-12-20T00:52:28.151Z,-3.41
2018-12-20T00:54:55.774Z,-3.32
2018-12-20T00:57:23.370Z,-3.35
2018-12-20T00:59:51.093Z,-3.58
2018-12-20T01:02:21.452Z,-3.55
2018-12-20T01:04:49.080Z,-3.44
2018-12-20T01:07:18.257Z,-3.37
2018-12-20T01:09:46.108Z,-3.28
2018-12-20T01:12:14.945Z,-3.32
2018-12-20T01:14:45.492Z,-3.30
2018-12-20T01:17:12.398Z,-3.28
2018-12-20T01:19:41.166Z,-3.29
2018-12-20T01:22:09.115Z,-3.43
2018-12-20T01:24:37.717Z,-3.50
2018-12-20T01:27:06.090Z,-3.57
2018-12-20T01:29:33.760Z,-3.58
2018-12-20T01:32:03.151Z,-3.44
2018-12-20T01:34:30.962Z,-3.47
2018-12-20T01:36:58.649Z,-3.66
2018-12-20T01:39:26.892Z,-3.84
2018-12-20T01:41:54.557Z,-3.90
2018-12-20T01:44:22.165Z,-4.03
2018-12-20T01:46:50.191Z,-4.07
2018-12-20T01:49:17.834Z,-4.11
2018-12-20T01:51:47.892Z,-4.10
2018-12-20T01:54:17.655Z,-4.12
2018-12-20T01:56:45.263Z,-4.13
2018-12-20T01:59:13.731Z,-4.09
2018-12-20T02:01:42.524Z,-4.12
2018-12-20T02:04:10.395Z,-4.06
2018-12-20T02:06:38.190Z,-4.22
2018-12-20T02:09:07.857Z,-4.16
2018-12-20T02:11:35.619Z,-4.13
2018-12-20T02:14:03.280Z,-4.03
2018-12-20T02:16:30.853Z,-4.09
2018-12-20T02:18:58.647Z,-4.13
2018-12-20T02:21:26.431Z,-4.08
2018-12-20T02:23:54.292Z,-4.01
2018-12-20T02:26:22.632Z,-4.07
2018-12-20T02:28:50.310Z,-4.04
2018-12-20T02:31:19.013Z,-3.96
2018-12-20T02:33:46.584Z,-3.96
2018-12-20T02:36:14.745Z,-3.99
2018-12-20T02:38:42.468Z,-3.96
2018-12-20T02:41:10.260Z,-3.90
2018-12-20T02:43:37.880Z,-3.89
2018-12-20T02:46:06.746Z,-3.82
2018-12-20T02:48:34.568Z,-3.80
2018-12-20T02:51:02.253Z,-3.85
2018-12-20T02:53:30.249Z,-3.86
2018-12-20T02:55:58.355Z,-3.81
2018-12-20T02:58:27.260Z,-3.80
2018-12-20T03:00:55.271Z,-3.89
2018-12-20T03:03:23.296Z,-3.82
2018-12-20T03:05:51.089Z,-3.75
2018-12-20T03:08:20.036Z,-3.70
2018-12-20T03:10:47.753Z,-3.63
2018-12-20T03:13:17.398Z,-3.54
2018-12-20T03:15:44.988Z,-3.62
2018-12-20T03:18:13.736Z,-3.64
2018-12-20T03:20:42.935Z,-3.73
2018-12-20T03:23:12.708Z,-3.73
2018-12-20T03:25:40.809Z,-3.68
2018-12-20T03:28:10.066Z,-3.59
2018-12-20T03:30:38.039Z,-3.52
2018-12-20T03:33:06.350Z,-3.48
2018-12-20T03:35:34.868Z,-3.49
2018-12-20T03:38:02.761Z,-3.45
2018-12-20T03:40:30.793Z,-3.44
2018-12-20T03:42:58.456Z,-3.45
2018-12-20T03:45:29.101Z,-3.29
2018-12-20T03:47:55.823Z,-3.41
2018-12-20T03:50:23.522Z,-3.37
2018-12-20T03:52:51.146Z,-3.41
2018-12-20T03:55:19.665Z,-3.38
2018-12-20T03:57:47.448Z,-3.47
2018-12-20T04:00:15.503Z,-3.44
2018-12-20T04:02:43.545Z,-3.40
2018-12-20T04:05:12.735Z,-3.47
2018-12-20T04:07:40.514Z,-3.51
2018-12-20T04:10:08.604Z,-3.46
2018-12-20T04:12:36.584Z,-3.40
2018-12-20T04:15:05.101Z,-3.41
2018-12-20T04:17:32.685Z,-3.34
2018-12-20T04:20:01.046Z,-3.35
2018-12-20T04:22:28.693Z,-3.38
2018-12-20T04:24:56.413Z,-3.39
2018-12-20T04:27:24.122Z,-3.40
2018-12-20T04:29:51.982Z,-3.34
2018-12-20T04:32:19.704Z,-3.35
2018-12-20T04:34:47.555Z,-3.34
2018-12-20T04:37:15.532Z,-3.33
2018-12-20T04:39:43.485Z,-3.35
2018-12-20T04:42:12.049Z,-3.31
2018-12-20T04:44:39.866Z,-3.32
2018-12-20T04:47:07.596Z,-3.34
2018-12-20T04:49:35.710Z,-3.28
2018-12-20T04:52:03.703Z,-3.22
2018-12-20T04:54:31.453Z,-3.29
2018-12-20T04:57:00.603Z,-3.24
2018-12-20T04:59:28.317Z,-3.20
2018-12-20T05:01:57.200Z,-3.16
2018-12-20T05:04:25.108Z,-3.07
2018-12-20T05:06:52.736Z,-3.05
2018-12-20T05:09:21.831Z,-3.12
2018-12-20T05:11:49.686Z,-2.92
2018-12-20T05:14:17.529Z,-2.89
2018-12-20T05:16:45.268Z,-2.67
2018-12-20T05:19:13.925Z,-2.79
2018-12-20T05:21:41.548Z,-2.82
2018-12-20T05:24:09.160Z,-2.78
2018-12-20T05:26:36.816Z,-2.82
2018-12-20T05:29:05.521Z,-2.84
2018-12-20T05:31:33.135Z,-2.91
2018-12-20T05:34:00.902Z,-2.88
2018-12-20T05:36:28.636Z,-2.87
2018-12-20T05:38:57.226Z,-2.82
2018-12-20T05:41:25.141Z,-2.83
2018-12-20T05:43:54.014Z,-2.85
2018-12-20T05:46:21.609Z,-2.75
2018-12-20T05:48:49.909Z,-2.71
2018-12-20T05:51:17.913Z,-2.66
2018-12-20T05:53:45.542Z,-2.71
2018-12-20T05:56:13.500Z,-2.76
2018-12-20T05:58:41.588Z,-2.70
2018-12-20T06:01:09.693Z,-2.64
2018-12-20T06:03:37.610Z,-2.60
2018-12-20T06:06:06.244Z,-2.66
2018-12-20T06:08:34.270Z,-2.65
2018-12-20T06:11:03.845Z,-2.58
2018-12-20T06:13:31.974Z,-2.58
2018-12-20T06:16:01.141Z,-2.56
2018-12-20T06:18:29.015Z,-2.52
2018-12-20T06:20:57.339Z,-2.57
2018-12-20T06:23:25.334Z,-2.58
2018-12-20T06:25:52.972Z,-2.57
2018-12-20T06:28:20.696Z,-2.61
2018-12-20T06:30:49.151Z,-2.57
2018-12-20T06:33:16.744Z,-2.55
2018-12-20T06:35:44.414Z,-2.48
2018-12-20T06:38:13.430Z,-2.47
2018-12-20T06:40:41.201Z,-2.42
2018-12-20T06:43:09.060Z,-2.43
2018-12-20T06:45:36.686Z,-2.46
2018-12-20T06:48:04.476Z,-2.44
2018-12-20T06:50:32.094Z,-2.51
2018-12-20T06:53:00.284Z,-2.49
2018-12-20T06:55:27.950Z,-2.48
2018-12-20T06:57:56.169Z,-2.47
2018-12-20T07:00:24.198Z,-2.46
2018-12-20T07:02:51.971Z,-2.46
2018-12-20T07:05:19.724Z,-2.39
2018-12-20T07:07:47.396Z,-2.34
2018-12-20T07:10:15.116Z,-2.30
2018-12-20T07:12:42.861Z,-2.25
2018-12-20T07:15:10.481Z,-2.18
2018-12-20T07:17:38.292Z,-2.17
2018-12-20T07:20:06.544Z,-2.14
2018-12-20T07:22:34.311Z,-2.12
2018-12-20T07:25:02.486Z,-2.15
2018-12-20T07:27:30.087Z,-2.10
2018-12-20T07:29:58.948Z,-2.05
2018-12-20T07:32:26.815Z,-2.03
2018-12-20T07:34:54.474Z,-1.96
2018-12-20T07:37:24.299Z,-2.02
2018-12-20T07:39:52.135Z,-2.00
2018-12-20T07:42:19.797Z,-1.97
2018-12-20T07:44:47.481Z,-1.97
2018-12-20T07:47:15.907Z,-1.92
2018-12-20T07:49:43.578Z,-1.87
2018-12-20T07:52:11.165Z,-1.82
2018-12-20T07:54:38.826Z,-1.83
2018-12-20T07:57:06.462Z,-1.89
2018-12-20T07:59:34.146Z,-1.78
2018-12-20T08:02:01.738Z,-1.76
2018-12-20T08:04:29.459Z,-1.72
2018-12-20T08:06:57.088Z,-1.70
2018-12-20T08:09:24.752Z,-1.75
2018-12-20T08:11:52.497Z,-1.63
2018-12-20T08:14:20.212Z,-1.64
2018-12-20T08:16:48.933Z,-1.66
2018-12-20T08:19:17.626Z,-1.70
2018-12-20T08:21:45.280Z,-1.67
2018-12-20T08:24:16.480Z,-1.66
2018-12-20T08:26:44.258Z,-1.76
2018-12-20T08:29:12.353Z,-1.80
2018-12-20T08:31:39.996Z,-1.75
2018-12-20T08:34:07.677Z,-1.64
2018-12-20T08:36:35.402Z,-1.62
2018-12-20T08:39:03.939Z,-1.64
2018-12-20T08:41:33.035Z,-1.53
2018-12-20T08:44:00.679Z,-1.44
2018-12-20T08:46:28.332Z,-1.39
2018-12-20T08:48:55.946Z,-1.19
2018-12-20T08:51:23.886Z,-1.18
2018-12-20T08:53:51.519Z,-0.95
2018-12-20T08:56:19.170Z,-0.94
2018-12-20T08:58:46.829Z,-0.91
2018-12-20T09:01:14.690Z,-1.15
2018-12-20T09:03:42.281Z,-1.30
2018-12-20T09:06:10.062Z,-1.24
2018-12-20T09:08:37.639Z,-1.26
2018-12-20T09:11:05.492Z,-1.10
2018-12-20T09:13:33.209Z,-1.06
2018-12-20T09:16:00.811Z,-0.99
2018-12-20T09:18:29.390Z,-1.09
2018-12-20T09:20:57.217Z,-0.96
2018-12-20T09:23:24.928Z,-1.07
2018-12-20T09:25:52.623Z,-1.06
2018-12-20T09:28:20.249Z,-0.90
2018-12-20T09:30:47.900Z,-0.47
2018-12-20T09:33:15.523Z,-0.42
2018-12-20T09:35:43.097Z,-0.25
2018-12-20T09:38:10.709Z,-0.44
2018-12-20T09:40:38.392Z,-0.40
2018-12-20T09:43:06.775Z,-0.47
2018-12-20T09:45:34.376Z,-0.42
2018-12-20T09:48:05.973Z,-0.51
2018-12-20T09:50:33.586Z,-0.62
2018-12-20T09:53:01.245Z,-0.45
2018-12-20T09:55:28.892Z,-0.21
2018-12-20T09:57:56.553Z,-0.39
2018-12-20T10:00:24.208Z,-0.43
2018-12-20T10:02:52.659Z,-0.37
2018-12-20T10:05:20.284Z,-0.24
2018-12-20T10:07:47.955Z,-0.14
2018-12-20T10:10:15.650Z,-0.03
2018-12-20T10:12:43.518Z,0.26
2018-12-20T10:15:11.180Z,0.51
2018-12-20T10:17:39.135Z,0.55
2018-12-20T10:20:09.046Z,0.71
2018-12-20T10:22:36.812Z,0.60
2018-12-20T10:25:04.836Z,0.81
2018-12-20T10:27:32.521Z,0.93
2018-12-20T10:30:00.337Z,0.96
2018-12-20T10:32:27.922Z,0.50
2018-12-20T10:34:55.592Z,0.45
2018-12-20T10:37:24.133Z,0.43
2018-12-20T10:39:51.721Z,0.84
2018-12-20T10:42:19.352Z,1.13
2018-12-20T10:44:47.000Z,1.00
2018-12-20T10:47:28.605Z,0.83
2018-12-20T10:49:50.618Z,0.92
2018-12-20T10:52:19.424Z,0.71
2018-12-20T10:54:47.392Z,0.83
2018-12-20T10:57:15.191Z,1.13
2018-12-20T10:59:43.000Z,1.20
2018-12-20T11:02:16.347Z,1.22
2018-12-20T11:04:49.650Z,0.96
2018-12-20T11:07:22.751Z,0.75
2018-12-20T11:09:56.077Z,0.76
2018-12-20T11:12:27.180Z,0.64
2018-12-20T11:14:55.151Z,0.66
2018-12-20T11:17:22.860Z,0.66
2018-12-20T11:19:50.583Z,0.69
2018-12-20T11:22:18.175Z,1.06
2018-12-20T11:24:45.965Z,0.82
2018-12-20T11:27:13.768Z,1.09
2018-12-20T11:29:41.866Z,1.41
2018-12-20T11:32:09.563Z,1.25
2018-12-20T11:34:37.209Z,0.84
2018-12-20T11:37:05.108Z,0.67
2018-12-20T11:39:33.048Z,0.56
2018-12-20T11:42:02.043Z,0.43
2018-12-20T11:44:29.700Z,0.58
2018-12-20T11:46:58.040Z,0.66
2018-12-20T11:49:25.873Z,0.60
2018-12-20T11:51:53.627Z,0.81
2018-12-20T11:54:21.303Z,0.83
2018-12-20T11:56:49.154Z,1.04
2018-12-20T11:59:16.970Z,1.08
2018-12-20T12:01:45.359Z,1.17
2018-12-20T12:04:13.272Z,1.26
2018-12-20T12:06:40.946Z,1.26
2018-12-20T12:09:08.914Z,1.06
2018-12-20T12:11:36.860Z,1.18
2018-12-20T12:14:04.518Z,1.04
2018-12-20T12:16:32.168Z,1.00
2018-12-20T12:18:59.824Z,1.06
2018-12-20T12:21:27.443Z,0.88
2018-12-20T12:23:55.115Z,0.64
2018-12-20T12:26:22.920Z,0.77
2018-12-20T12:28:50.555Z,1.13
2018-12-20T12:31:18.295Z,1.23
2018-12-20T12:33:46.078Z,1.31
2018-12-20T12:36:13.684Z,1.23
2018-12-20T12:38:41.348Z,1.25
2018-12-20T12:41:09.033Z,0.83
2018-12-20T12:43:36.698Z,0.94
2018-12-20T12:46:04.331Z,1.19
2018-12-20T12:48:31.996Z,1.09
2018-12-20T12:50:59.652Z,1.15
2018-12-20T12:53:27.412Z,0.97
2018-12-20T12:55:55.081Z,0.71
2018-12-20T12:58:22.857Z,0.60
2018-12-20T13:00:50.616Z,0.99
2018-12-20T13:03:18.535Z,1.01
2018-12-20T13:05:46.251Z,0.83
2018-12-20T13:08:13.971Z,0.84
2018-12-20T13:10:41.773Z,0.97
2018-12-20T13:13:09.389Z,1.18
2018-12-20T13:15:37.152Z,1.26
2018-12-20T13:18:13.608Z,1.17
2018-12-20T13:20:34.453Z,1.19
2018-12-20T13:23:02.116Z,1.22
2018-12-20T13:25:29.749Z,1.27
2018-12-20T13:27:57.496Z,0.88
2018-12-20T13:30:25.102Z,0.84
2018-12-20T13:32:52.766Z,0.93
2018-12-20T13:35:20.341Z,1.02
2018-12-20T13:37:48.061Z,0.76
2018-12-20T13:40:15.722Z,0.79
2018-12-20T13:42:43.426Z,0.69
2018-12-20T13:45:12.020Z,0.59
2018-12-20T13:47:39.764Z,0.57
2018-12-20T13:50:08.059Z,0.56
2018-12-20T13:52:35.653Z,0.51
2018-12-20T13:55:03.639Z,0.55
2018-12-20T13:57:32.382Z,0.47
2018-12-20T14:00:00.046Z,0.27
2018-12-20T14:02:27.800Z,0.32
2018-12-20T14:04:55.539Z,0.18
2018-12-20T14:07:23.280Z,0.04
2018-12-20T14:09:51.088Z,0.18
2018-12-20T14:12:18.823Z,0.06
2018-12-20T14:14:46.482Z,0.04
2018-12-20T14:17:14.055Z,0.00
2018-12-20T14:19:41.774Z,-0.01
2018-12-20T14:22:09.460Z,0.08
2018-12-20T14:24:37.130Z,0.05
2018-12-20T14:27:05.046Z,-0.03
2018-12-20T14:29:33.632Z,-0.06
2018-12-20T14:32:01.931Z,-0.06
2018-12-20T14:34:29.560Z,-0.24
2018-12-20T14:36:57.350Z,-0.16
2018-12-20T14:39:25.044Z,-0.09
2018-12-20T14:41:52.948Z,-0.12
2018-12-20T14:44:20.641Z,-0.10
2018-12-20T14:46:48.389Z,-0.18
2018-12-20T14:49:16.283Z,-0.17
2018-12-20T14:51:44.113Z,-0.17
2018-12-20T14:54:11.789Z,-0.13
2018-12-20T14:56:40.518Z,-0.09
2018-12-20T14:59:08.127Z,-0.15
2018-12-20T15:01:36.000Z,-0.13
2018-12-20T15:04:04.342Z,-0.25
2018-12-20T15:06:32.051Z,-0.21
2018-12-20T15:09:00.026Z,-0.25
2018-12-20T15:11:27.978Z,-0.31
2018-12-20T15:13:56.472Z,-0.40
2018-12-20T15:16:24.989Z,-0.38
2018-12-20T15:18:53.655Z,-0.40
2018-12-20T15:21:21.872Z,-0.30
2018-12-20T15:23:49.484Z,-0.31
2018-12-20T15:26:17.234Z,-0.31
2018-12-20T15:28:44.866Z,-0.35
2018-12-20T15:31:12.862Z,-0.44
2018-12-20T15:33:41.552Z,-0.33
2018-12-20T15:36:10.311Z,-0.26
2018-12-20T15:38:38.910Z,-0.28
2018-12-20T15:41:07.209Z,-0.27
2018-12-20T15:43:35.018Z,-0.33
2018-12-20T15:46:04.405Z,-0.33
2018-12-20T15:48:33.611Z,-0.32
2018-12-20T15:51:02.992Z,-0.38
2018-12-20T15:53:30.877Z,-0.56
2018-12-20T15:56:02.761Z,-0.54
2018-12-20T15:58:31.344Z,-0.53
2018-12-20T16:01:00.083Z,-0.51
2018-12-20T16:03:28.007Z,-0.47
2018-12-20T16:05:55.731Z,-0.46
2018-12-20T16:08:23.983Z,-0.47
2018-12-20T16:10:52.903Z,-0.46
2018-12-20T16:13:21.859Z,-0.53
2018-12-20T16:15:51.018Z,-0.53
2018-12-20T16:18:19.033Z,-0.69
2018-12-20T16:20:46.787Z,-0.75
2018-12-20T16:23:14.568Z,-0.71
2018-12-20T16:25:42.215Z,-0.77
2018-12-20T16:28:10.851Z,-0.84
2018-12-20T16:30:38.765Z,-0.86
2018-12-20T16:33:07.308Z,-1.06
2018-12-20T16:35:35.387Z,-0.97
2018-12-20T16:38:02.990Z,-1.03
2018-12-20T16:40:30.689Z,-1.08
2018-12-20T16:42:58.355Z,-1.08
2018-12-20T16:45:26.062Z,-1.12
2018-12-20T16:47:53.679Z,-1.21
2018-12-20T16:50:21.493Z,-1.23
2018-12-20T16:52:49.223Z,-1.29
2018-12-20T16:55:17.854Z,-1.44
2018-12-20T16:57:45.505Z,-1.38
2018-12-20T17:00:16.068Z,-1.36
2018-12-20T17:02:43.869Z,-1.42
2018-12-20T17:05:15.740Z,-1.64
2018-12-20T17:07:43.469Z,-1.71
2018-12-20T17:10:11.125Z,-1.66
2018-12-20T17:12:41.068Z,-1.94
2018-12-20T17:15:09.577Z,-1.86
2018-12-20T17:17:38.112Z,-1.94
2018-12-20T17:20:07.466Z,-1.90
2018-12-20T17:22:35.987Z,-1.94
2018-12-20T17:25:04.657Z,-1.92
2018-12-20T17:27:33.632Z,-2.04
2018-12-20T17:30:06.187Z,-2.06
2018-12-20T17:32:33.942Z,-2.18
2018-12-20T17:35:03.077Z,-2.12
2018-12-20T17:37:31.037Z,-2.06
2018-12-20T17:39:58.854Z,-2.13
2018-12-20T17:42:27.335Z,-2.14
2018-12-20T17:44:56.093Z,-2.39
2018-12-20T17:47:23.762Z,-2.50
2018-12-20T17:49:51.392Z,-2.51
2018-12-20T17:52:20.395Z,-2.43
2018-12-20T17:54:48.061Z,-2.53
2018-12-20T17:57:15.670Z,-2.61
2018-12-20T17:59:43.487Z,-2.65
2018-12-20T18:02:12.434Z,-2.59
2018-12-20T18:04:40.274Z,-2.56
2018-12-20T18:07:08.913Z,-2.65
2018-12-20T18:09:36.593Z,-2.64
2018-12-20T18:12:04.232Z,-2.63
2018-12-20T18:14:32.084Z,-2.68
2018-12-20T18:17:00.685Z,-2.71
2018-12-20T18:19:29.099Z,-2.73
2018-12-20T18:21:57.048Z,-2.77
2018-12-20T18:24:25.537Z,-2.67
2018-12-20T18:26:53.289Z,-2.67
2018-12-20T18:29:21.247Z,-2.59
2018-12-20T18:31:48.884Z,-2.56
2018-12-20T18:34:16.867Z,-2.53
2018-12-20T18:36:44.580Z,-2.53
2018-12-20T18:39:12.404Z,-2.59
2018-12-20T18:41:40.089Z,-2.63
2018-12-20T18:44:09.006Z,-2.59
2018-12-20T18:46:37.555Z,-2.56
2018-12-20T18:49:05.366Z,-2.59
2018-12-20T18:51:33.033Z,-2.54
2018-12-20T18:54:02.206Z,-2.38
2018-12-20T18:56:29.876Z,-2.44
2018-12-20T18:58:59.503Z,-2.70
2018-12-20T19:01:27.683Z,-2.68
2018-12-20T19:03:55.326Z,-2.73
2018-12-20T19:06:23.270Z,-2.71
2018-12-20T19:08:51.919Z,-2.77
2018-12-20T19:11:20.586Z,-2.78
2018-12-20T19:13:49.143Z,-2.82
2018-12-20T19:16:17.090Z,-2.78
2018-12-20T19:18:44.905Z,-2.90
2018-12-20T19:21:12.622Z,-2.96
2018-12-20T19:23:40.705Z,-2.88
2018-12-20T19:26:12.420Z,-2.85
2018-12-20T19:28:40.610Z,-2.87
2018-12-20T19:31:15.583Z,-2.94
2018-12-20T19:33:43.930Z,-2.97
2018-12-20T19:36:13.151Z,-3.10
2018-12-20T19:38:41.146Z,-3.20
2018-12-20T19:41:10.999Z,-3.16
2018-12-20T19:43:38.807Z,-2.99
2018-12-20T19:46:06.505Z,-2.89
2018-12-20T19:48:34.590Z,-2.82
2018-12-20T19:51:03.720Z,-2.87
2018-12-20T19:53:32.490Z,-2.96
2018-12-20T19:56:00.649Z,-2.83
2018-12-20T19:58:30.569Z,-2.83
2018-12-20T20:00:59.128Z,-2.72
2018-12-20T20:03:27.139Z,-2.67
2018-12-20T20:05:56.278Z,-2.57
2018-12-20T20:08:24.152Z,-2.49
2018-12-20T20:10:54.304Z,-2.67
2018-12-20T20:13:30.525Z,-2.41
2018-12-20T20:15:52.354Z,-2.34
2018-12-20T20:18:20.711Z,-2.27
2018-12-20T20:20:48.496Z,-2.18
2018-12-20T20:23:19.258Z,-2.28
2018-12-20T20:25:47.139Z,-2.21
2018-12-20T20:28:17.318Z,-2.19
2018-12-20T20:30:45.912Z,-2.10
2018-12-20T20:33:15.723Z,-2.10
2018-12-20T20:35:43.448Z,-2.20
2018-12-20T20:38:11.383Z,-2.16
2018-12-20T20:40:40.228Z,-2.07
2018-12-20T20:43:07.862Z,-2.03
2018-12-20T20:45:35.695Z,-2.16
2018-12-20T20:48:03.374Z,-2.18
2018-12-20T20:50:31.098Z,-2.31
2018-12-20T20:52:59.143Z,-2.30
2018-12-20T20:55:26.869Z,-2.30
2018-12-20T20:57:55.318Z,-2.19
2018-12-20T21:00:25.276Z,-2.18
2018-12-20T21:02:54.937Z,-2.32
2018-12-20T21:05:25.872Z,-2.26
2018-12-20T21:07:54.175Z,-2.17
2018-12-20T21:10:22.850Z,-2.11
2018-12-20T21:12:50.452Z,-2.10
2018-12-20T21:15:18.210Z,-2.05
2018-12-20T21:17:45.869Z,-2.08
2018-12-20T21:20:15.503Z,-2.04
2018-12-20T21:22:43.258Z,-2.03
2018-12-20T21:25:12.363Z,-2.15
2018-12-20T21:27:40.828Z,-2.18
2018-12-20T21:30:09.540Z,-2.13
2018-12-20T21:32:37.317Z,-2.06
2018-12-20T21:35:08.610Z,-2.06
2018-12-20T21:37:36.299Z,-2.08
2018-12-20T21:40:04.414Z,-2.08
2018-12-20T21:42:32.543Z,-2.11
2018-12-20T21:45:01.164Z,-2.19
2018-12-20T21:47:28.841Z,-2.16
2018-12-20T21:49:56.962Z,-2.19
2018-12-20T21:52:25.020Z,-2.22
2018-12-20T21:54:52.726Z,-2.15
2018-12-20T21:57:23.238Z,-2.14
2018-12-20T21:59:51.091Z,-2.15
2018-12-20T22:02:20.884Z,-2.19
2018-12-20T22:04:48.784Z,-2.17
2018-12-20T22:07:16.469Z,-2.35
2018-12-20T22:09:44.431Z,-2.33
2018-12-20T22:12:12.199Z,-2.28
2018-12-20T22:14:41.007Z,-2.21
2018-12-20T22:17:08.748Z,-2.22
2018-12-20T22:19:36.612Z,-2.14
2018-12-20T22:22:04.472Z,-2.09
2018-12-20T22:24:32.933Z,-2.05
2018-12-20T22:27:01.527Z,-1.95
2018-12-20T22:29:29.359Z,-1.92
2018-12-20T22:31:57.781Z,-1.79
2018-12-20T22:34:25.496Z,-1.88
2018-12-20T22:36:53.111Z,-2.04
2018-12-20T22:39:20.774Z,-2.06
2018-12-20T22:41:48.378Z,-2.13
2018-12-20T22:44:16.058Z,-2.33
2018-12-20T22:46:43.677Z,-2.40
2018-12-20T22:49:11.320Z,-2.21
2018-12-20T22:51:38.955Z,-1.99
2018-12-20T22:54:06.665Z,-2.06
2018-12-20T22:56:34.504Z,-2.13
2018-12-20T22:59:05.861Z,-2.14
2018-12-20T23:01:33.726Z,-2.10
2018-12-20T23:04:03.659Z,-2.10
2018-12-20T23:06:32.558Z,-2.10
2018-12-20T23:09:01.063Z,-2.21
2018-12-20T23:11:28.877Z,-2.36
2018-12-20T23:13:56.611Z,-2.28
2018-12-20T23:16:24.272Z,-2.19
2018-12-20T23:18:51.866Z,-2.00
2018-12-20T23:21:19.536Z,-1.96
2018-12-20T23:23:47.485Z,-2.00
2018-12-20T23:26:15.432Z,-2.10
2018-12-20T23:28:43.203Z,-2.20
2018-12-20T23:31:10.795Z,-2.25
2018-12-20T23:33:38.449Z,-2.23
2018-12-20T23:36:07.235Z,-2.21
2018-12-20T23:38:34.854Z,-2.24
2018-12-20T23:41:02.549Z,-2.18
2018-12-20T23:43:30.161Z,-2.23
2018-12-20T23:45:58.546Z,-2.24
2018-12-20T23:48:26.992Z,-2.15
2018-12-20T23:50:55.843Z,-2.10
2018-12-20T23:53:24.268Z,-1.98
2018-12-20T23:55:54.807Z,-2.04
2018-12-20T23:58:22.395Z,-2.00
